Time;durP1;ratioP1;P1;durP2;ratioP2;P2;SDS_P1;SDS_P2;PMS_P1;PMS_P2;Temp;Humidity;BMP_temperature;BMP_pressure;BME280_temperature;BME280_humidity;BME280_pressure;Samples;Min_cycle;Max_cycle;Signal;HPM_P1;HPM_P2
2022/08/23 00:02:47;;;;;;;0.20;0.00;;;24.30;99.90;;;;;;26149540;22;20195;-69
2022/08/23 00:12:51;;;;;;;0.20;0.00;;;24.20;99.90;;;;;;26175420;22;20179;-69
2022/08/23 00:22:56;;;;;;;0.20;0.00;;;24.30;99.90;;;;;;26174758;22;20183;-69
2022/08/23 00:33:00;;;;;;;0.20;0.00;;;24.20;99.90;;;;;;26173019;22;20160;-69
2022/08/23 00:53:33;;;;;;;0.20;0.00;;;24.10;99.90;;;;;;26147944;22;20164;-69
2022/08/23 01:03:42;;;;;;;0.20;0.00;;;24.10;99.90;;;;;;26174450;22;20198;-71
2022/08/23 01:13:51;;;;;;;0.20;0.00;;;24.00;99.90;;;;;;26171973;22;20147;-70
2022/08/23 01:23:59;;;;;;;0.20;0.00;;;24.00;99.90;;;;;;26144892;22;20188;-69
2022/08/23 01:34:07;;;;;;;0.20;0.00;;;23.80;99.90;;;;;;26173352;22;20164;-69
2022/08/23 01:44:12;;;;;;;0.20;0.00;;;23.80;99.90;;;;;;26171583;22;20191;-69
2022/08/23 01:54:16;;;;;;;0.20;0.00;;;23.80;99.90;;;;;;26172373;22;20198;-69
2022/08/23 02:04:21;;;;;;;0.20;0.00;;;23.70;99.90;;;;;;26169710;22;20202;-69
2022/08/23 02:14:25;;;;;;;0.20;0.00;;;23.70;99.90;;;;;;26145849;22;20170;-69
2022/08/23 02:24:31;;;;;;;0.20;0.00;;;23.70;99.90;;;;;;26169963;22;20182;-69
2022/08/23 02:34:35;;;;;;;0.20;0.03;;;23.70;99.90;;;;;;26170432;22;20170;-69
2022/08/23 02:44:40;;;;;;;0.20;0.00;;;23.60;99.90;;;;;;26169985;22;20235;-69
2022/08/23 02:54:44;;;;;;;0.20;0.00;;;23.60;99.90;;;;;;26169427;22;20196;-69
2022/08/23 03:04:50;;;;;;;0.20;0.00;;;23.60;99.90;;;;;;26142215;22;20309;-69
2022/08/23 03:14:53;;;;;;;0.20;0.00;;;23.60;99.90;;;;;;26170290;22;20158;-71
2022/08/23 03:24:58;;;;;;;0.20;0.00;;;23.60;99.90;;;;;;26179839;22;20193;-69
2022/08/23 03:35:03;;;;;;;0.20;0.00;;;23.60;99.90;;;;;;26177638;22;20182;-69
2022/08/23 03:45:18;;;;;;;0.20;0.00;;;23.50;99.90;;;;;;26178225;22;20194;-70
2022/08/23 03:55:22;;;;;;;0.20;0.00;;;23.60;99.90;;;;;;26149735;22;20286;-70
2022/08/23 04:05:27;;;;;;;0.20;0.00;;;23.40;99.90;;;;;;26176434;22;20207;-70
2022/08/23 04:15:31;;;;;;;0.20;0.00;;;23.30;99.90;;;;;;26176379;22;20178;-70
2022/08/23 04:25:36;;;;;;;0.20;0.00;;;23.40;99.90;;;;;;26175002;22;20187;-70
2022/08/23 04:35:41;;;;;;;0.20;0.00;;;23.30;99.90;;;;;;26175311;22;20179;-70
2022/08/23 04:45:47;;;;;;;0.20;0.00;;;23.30;99.90;;;;;;26173198;22;20195;-70
2022/08/23 04:55:51;;;;;;;0.20;0.00;;;23.30;99.90;;;;;;26175182;22;20222;-70
2022/08/23 05:05:56;;;;;;;0.20;0.00;;;23.30;99.90;;;;;;26170415;22;20199;-69
2022/08/23 05:16:00;;;;;;;0.20;0.00;;;23.20;99.90;;;;;;26173373;22;20176;-68
2022/08/23 05:26:06;;;;;;;0.20;0.00;;;23.10;99.90;;;;;;26145621;22;20183;-69
2022/08/23 05:36:12;;;;;;;0.20;0.00;;;23.10;99.90;;;;;;26172719;22;20163;-70
2022/08/23 05:46:20;;;;;;;0.20;0.00;;;23.20;99.90;;;;;;26170790;22;20587;-69
2022/08/23 05:56:31;;;;;;;0.20;0.00;;;23.30;99.90;;;;;;26169272;22;20191;-70
2022/08/23 06:06:36;;;;;;;0.20;0.00;;;23.50;99.90;;;;;;26141277;22;20203;-70
2022/08/23 06:16:45;;;;;;;0.20;0.00;;;23.90;99.90;;;;;;26168367;22;20187;-69
2022/08/23 06:26:50;;;;;;;0.20;0.00;;;24.30;99.90;;;;;;26140027;22;20184;-70
2022/08/23 06:36:56;;;;;;;0.20;0.00;;;24.80;99.90;;;;;;26168566;22;20152;-70
2022/08/23 06:47:01;;;;;;;0.20;0.00;;;25.10;99.90;;;;;;26166289;22;20212;-70
2022/08/23 06:57:05;;;;;;;0.20;0.00;;;25.00;99.90;;;;;;26166957;22;20187;-70
2022/08/23 07:07:11;;;;;;;0.20;0.03;;;24.90;99.90;;;;;;26137346;22;20199;-71
2022/08/23 07:17:15;;;;;;;0.20;0.08;;;25.10;99.90;;;;;;26165022;22;20152;-70
2022/08/23 07:27:20;;;;;;;0.20;0.00;;;25.60;99.90;;;;;;26134576;22;20214;-70
2022/08/23 07:37:26;;;;;;;0.20;0.00;;;25.80;99.90;;;;;;26138850;22;20152;-70
2022/08/23 07:47:32;;;;;;;0.20;0.00;;;25.80;99.90;;;;;;26165990;22;20176;-71
2022/08/23 07:57:36;;;;;;;0.20;0.00;;;25.90;99.90;;;;;;26165005;22;20202;-71
2022/08/23 08:07:42;;;;;;;0.20;0.00;;;26.10;99.90;;;;;;26167763;22;20195;-70
2022/08/23 08:17:48;;;;;;;0.20;0.00;;;26.10;99.90;;;;;;26169938;22;20174;-70
2022/08/23 08:27:53;;;;;;;0.20;0.00;;;26.30;99.90;;;;;;26172547;22;20175;-70
2022/08/23 08:37:57;;;;;;;0.20;0.00;;;26.50;99.90;;;;;;26144612;22;20262;-71
2022/08/23 08:48:06;;;;;;;0.20;0.00;;;26.40;99.90;;;;;;26141856;22;20183;-69
2022/08/23 08:58:25;;;;;;;0.20;0.00;;;26.70;99.90;;;;;;26143118;22;20206;-69
2022/08/23 09:08:44;;;;;;;0.20;0.00;;;26.80;99.90;;;;;;26169937;22;20199;-69
2022/08/23 09:18:48;;;;;;;0.20;0.00;;;27.10;99.90;;;;;;26166796;22;20231;-70
2022/08/23 09:28:56;;;;;;;0.20;0.00;;;27.20;99.90;;;;;;26142583;22;20183;-69
2022/08/23 09:39:03;;;;;;;0.20;0.00;;;27.30;99.90;;;;;;26169083;22;20167;-69
2022/08/23 09:49:27;;;;;;;0.20;0.00;;;27.50;99.90;;;;;;26166584;22;20195;-69
2022/08/23 09:59:39;;;;;;;0.20;0.00;;;27.80;99.90;;;;;;26167845;22;20202;-69
2022/08/23 10:09:44;;;;;;;0.20;0.00;;;28.20;99.90;;;;;;26139022;22;20186;-70
2022/08/23 10:19:56;;;;;;;0.20;0.00;;;28.00;99.90;;;;;;26165513;22;20163;-69
2022/08/23 10:30:06;;;;;;;0.20;0.00;;;28.40;99.90;;;;;;26166101;22;20202;-69
2022/08/23 10:40:16;;;;;;;0.20;0.00;;;28.80;99.90;;;;;;26162454;22;20187;-71
2022/08/23 10:50:21;;;;;;;0.20;0.00;;;29.20;99.90;;;;;;26162624;22;20178;-70
2022/08/23 11:00:28;;;;;;;0.20;0.00;;;29.50;99.90;;;;;;26163244;22;20198;-71
2022/08/23 11:10:45;;;;;;;0.20;0.00;;;29.80;99.90;;;;;;26162710;22;20202;-70
2022/08/23 11:21:06;;;;;;;0.20;0.00;;;30.20;99.90;;;;;;26132880;22;20171;-71
2022/08/23 11:31:25;;;;;;;0.20;0.00;;;30.80;99.90;;;;;;26161248;22;20186;-70
2022/08/23 11:41:31;;;;;;;0.20;0.00;;;31.40;99.90;;;;;;26168390;22;20167;-69
2022/08/23 11:51:43;;;;;;;0.20;0.00;;;31.90;99.90;;;;;;26171887;22;20172;-68
2022/08/23 12:01:47;;;;;;;0.20;0.00;;;32.20;99.90;;;;;;26172844;22;20187;-71
2022/08/23 12:12:22;;;;;;;0.20;0.00;;;32.40;99.90;;;;;;26146197;22;20198;-70
2022/08/23 12:22:34;;;;;;;0.20;0.00;;;32.80;99.90;;;;;;26170824;22;20249;-70
2022/08/23 12:32:44;;;;;;;0.20;0.00;;;33.30;99.90;;;;;;26169555;22;20192;-71
2022/08/23 12:42:50;;;;;;;0.20;0.00;;;33.50;99.90;;;;;;26171865;22;20151;-69
2022/08/23 12:53:01;;;;;;;0.20;0.00;;;33.70;99.90;;;;;;26171704;22;20183;-71
2022/08/23 13:03:14;;;;;;;0.20;0.00;;;34.20;99.90;;;;;;26168909;22;20194;-70
2022/08/23 13:13:22;;;;;;;0.20;0.00;;;34.50;99.90;;;;;;26167576;22;20183;-70
2022/08/23 13:23:28;;;;;;;0.20;0.00;;;34.90;99.90;;;;;;26141222;22;20167;-71
2022/08/23 13:33:34;;;;;;;0.20;0.00;;;35.40;99.90;;;;;;26170127;22;20243;-70
2022/08/23 13:43:45;;;;;;;0.20;0.00;;;35.10;99.90;;;;;;26170295;22;20167;-71
2022/08/23 13:53:50;;;;;;;0.20;0.00;;;36.70;99.90;;;;;;26142225;22;20206;-70
2022/08/23 14:03:54;;;;;;;0.20;0.00;;;36.70;99.90;;;;;;26142335;22;20694;-71
2022/08/23 14:14:00;;;;;;;0.20;0.00;;;36.40;99.90;;;;;;26170013;22;20607;-69
2022/08/23 14:24:04;;;;;;;0.20;0.00;;;36.70;99.90;;;;;;26167123;22;20155;-70
2022/08/23 14:34:09;;;;;;;0.20;0.00;;;36.50;99.90;;;;;;26140976;22;20246;-70
2022/08/23 14:44:15;;;;;;;0.20;0.00;;;35.90;99.90;;;;;;26139795;22;20178;-69
2022/08/23 14:54:22;;;;;;;0.20;0.00;;;36.00;99.90;;;;;;26167811;22;20195;-69
2022/08/23 15:04:27;;;;;;;0.20;0.00;;;36.00;99.90;;;;;;26139163;22;20194;-70
2022/08/23 15:14:38;;;;;;;0.20;0.00;;;35.80;99.90;;;;;;26136646;22;20197;-70
2022/08/23 15:24:42;;;;;;;0.20;0.00;;;35.90;99.90;;;;;;26164051;22;20167;-70
2022/08/23 15:34:47;;;;;;;0.20;0.00;;;34.70;99.90;;;;;;26164195;22;20250;-71
2022/08/23 15:44:51;;;;;;;0.20;0.00;;;33.00;99.90;;;;;;26163293;22;20300;-70
2022/08/23 15:54:56;;;;;;;0.20;0.00;;;32.10;99.90;;;;;;26161236;22;20255;-71
2022/08/23 16:05:00;;;;;;;0.20;0.00;;;31.60;99.90;;;;;;26162038;22;20206;-70
2022/08/23 16:15:07;;;;;;;0.20;0.00;;;30.70;99.90;;;;;;26134813;22;20163;-69
2022/08/23 16:25:11;;;;;;;0.20;0.00;;;31.00;99.90;;;;;;26163713;22;20168;-70
2022/08/23 16:35:17;;;;;;;0.20;0.00;;;30.50;99.90;;;;;;26169416;22;20183;-70
2022/08/23 16:45:20;;;;;;;0.20;0.00;;;30.60;99.90;;;;;;26168173;22;20180;-70
2022/08/23 16:55:30;;;;;;;0.20;0.00;;;30.60;99.90;;;;;;26169600;22;20191;-69
2022/08/23 17:05:34;;;;;;;0.20;0.00;;;30.30;99.90;;;;;;26164834;22;20184;-69
2022/08/23 17:15:40;;;;;;;0.20;0.00;;;30.40;99.90;;;;;;26134480;22;20164;-69
2022/08/23 17:25:46;;;;;;;0.20;0.00;;;30.30;99.90;;;;;;26167414;22;20195;-69
2022/08/23 17:35:51;;;;;;;0.20;0.00;;;31.50;99.90;;;;;;26143903;22;20164;-69
2022/08/23 17:45:55;;;;;;;0.20;0.00;;;32.50;99.90;;;;;;26142445;22;20183;-69
2022/08/23 17:56:02;;;;;;;0.20;0.00;;;31.30;99.90;;;;;;26167975;22;20191;-70
2022/08/23 18:06:15;;;;;;;0.20;0.00;;;29.10;99.90;;;;;;26169014;22;20183;-69
2022/08/23 18:16:21;;;;;;;0.20;0.00;;;28.70;99.90;;;;;;26140828;22;20170;-70
2022/08/23 18:36:48;;;;;;;0.20;0.10;;;28.40;99.90;;;;;;26137492;22;20168;-70
2022/08/23 18:46:52;;;;;;;0.20;0.00;;;28.30;99.90;;;;;;26164901;22;20179;-70
2022/08/23 18:56:59;;;;;;;0.20;0.00;;;28.30;99.90;;;;;;26158622;22;20234;-70
2022/08/23 19:07:03;;;;;;;0.20;0.00;;;28.20;99.90;;;;;;26164080;22;20218;-69
2022/08/23 19:17:08;;;;;;;0.20;0.00;;;28.10;99.90;;;;;;26161163;22;20254;-71
2022/08/23 19:27:13;;;;;;;0.20;0.00;;;28.00;99.90;;;;;;26138408;22;20187;-70
2022/08/23 19:37:19;;;;;;;0.20;0.00;;;28.00;99.90;;;;;;26162892;22;20170;-69
2022/08/23 19:47:26;;;;;;;0.20;0.00;;;27.90;99.90;;;;;;26163766;22;20192;-71
2022/08/23 19:57:33;;;;;;;0.20;0.00;;;27.90;99.90;;;;;;26167818;22;20198;-71
2022/08/23 20:07:38;;;;;;;0.20;0.00;;;27.70;99.90;;;;;;26173126;22;20187;-70
2022/08/23 20:17:43;;;;;;;0.20;0.00;;;27.70;99.90;;;;;;26174659;22;20553;-71
2022/08/23 20:27:47;;;;;;;0.20;0.00;;;27.70;99.90;;;;;;26172819;22;20287;-70
2022/08/23 20:37:52;;;;;;;0.20;0.00;;;27.60;99.90;;;;;;26171700;22;20600;-70
2022/08/23 20:47:56;;;;;;;0.20;0.00;;;27.40;99.90;;;;;;26167113;22;20191;-71
2022/08/23 20:58:02;;;;;;;0.20;0.00;;;27.40;99.90;;;;;;26168732;22;20187;-69
2022/08/23 21:08:06;;;;;;;0.20;0.00;;;27.00;99.90;;;;;;26168397;22;20191;-68
2022/08/23 21:18:16;;;;;;;0.20;0.00;;;26.50;99.90;;;;;;26142226;22;20167;-69
2022/08/23 21:28:20;;;;;;;0.20;0.00;;;26.50;99.90;;;;;;26140058;22;20184;-71
2022/08/23 21:38:25;;;;;;;0.20;0.08;;;26.40;99.90;;;;;;26136494;22;20167;-70
2022/08/23 21:48:30;;;;;;;0.20;0.00;;;26.20;99.90;;;;;;26143680;22;20183;-70
2022/08/23 21:58:35;;;;;;;0.20;0.00;;;26.20;99.90;;;;;;26171274;22;20191;-71
2022/08/23 22:08:39;;;;;;;0.20;0.00;;;26.10;99.90;;;;;;26171588;22;20191;-69
2022/08/23 22:18:44;;;;;;;0.20;0.00;;;25.90;99.90;;;;;;26170482;22;20171;-70
2022/08/23 22:28:48;;;;;;;0.20;0.00;;;25.80;99.90;;;;;;26140775;22;20183;-69
2022/08/23 22:38:54;;;;;;;0.20;0.00;;;25.80;99.90;;;;;;26168318;22;20172;-70
2022/08/23 22:48:58;;;;;;;0.20;0.00;;;25.60;99.90;;;;;;26171129;22;20203;-70
2022/08/23 22:59:05;;;;;;;0.20;0.00;;;25.50;99.90;;;;;;26144421;22;20210;-70
2022/08/23 23:09:11;;;;;;;0.20;0.08;;;25.30;99.90;;;;;;26142955;22;20191;-70
2022/08/23 23:29:38;;;;;;;0.20;0.00;;;25.40;99.90;;;;;;26170221;22;20194;-70
2022/08/23 23:39:43;;;;;;;0.20;0.00;;;25.30;99.90;;;;;;26175025;22;20178;-71
2022/08/23 23:49:47;;;;;;;0.20;0.00;;;25.30;99.90;;;;;;26152440;22;20371;-70
2022/08/23 23:59:54;;;;;;;0.20;0.00;;;25.30;99.90;;;;;;26150770;22;20217;-71
